Time;durP1;ratioP1;P1;durP2;ratioP2;P2;SDS_P1;SDS_P2;PMS_P1;PMS_P2;Temp;Humidity;BMP_temperature;BMP_pressure;BME280_temperature;BME280_humidity;BME280_pressure;Samples;Min_cycle;Max_cycle;Signal;HPM_P1;HPM_P2
2022/01/30 02:09:00;;;;;;;131.00;70.32;;;13.70;2201.60;;;;;;4991117;28;20526;-84
2022/01/30 02:11:41;;;;;;;116.75;63.75;;;38.50;2201.60;;;;;;4979749;28;20510;-80
2022/01/30 02:15:19;;;;;;;87.25;48.58;;;38.70;2201.60;;;;;;5003577;28;20041;-80
2022/01/30 02:30:34;;;;;;;122.75;66.47;;;38.90;2201.60;;;;;;4876662;29;20056;-79
2022/01/30 02:43:02;;;;;;;138.13;75.63;;;38.40;2201.60;;;;;;5041111;23;20051;-81
2022/01/30 02:46:50;;;;;;;126.88;72.18;;;38.40;2201.60;;;;;;5012201;28;20073;-79
2022/01/30 02:50:35;;;;;;;152.48;79.32;;;13.60;2201.60;;;;;;5011572;28;20053;-78
2022/01/30 02:54:02;;;;;;;116.85;64.97;;;38.40;2201.60;;;;;;4989993;28;20048;-81
2022/01/30 02:57:29;;;;;;;123.93;62.92;;;13.70;2201.60;;;;;;4950518;29;20050;-79
2022/01/30 03:00:26;;;;;;;111.78;59.28;;;38.40;2201.60;;;;;;4949612;29;20056;-79
2022/01/30 03:03:35;;;;;;;123.97;62.47;;;13.70;2201.60;;;;;;4932003;29;20058;-81
2022/01/30 03:06:37;;;;;;;93.95;50.10;;;38.40;2201.60;;;;;;4935470;29;20040;-80
2022/01/30 03:13:08;;;;;;;82.43;43.45;;;38.60;2201.60;;;;;;4951700;29;20035;-81
2022/01/30 03:15:35;;;;;;;91.70;47.42;;;38.40;2201.60;;;;;;4932344;29;20047;-80
2022/01/30 03:18:02;;;;;;;87.25;48.20;;;13.70;2201.60;;;;;;4944050;29;20036;-82
2022/01/30 03:20:29;;;;;;;83.43;47.05;;;13.70;2201.60;;;;;;4941905;29;20516;-84
2022/01/30 03:22:56;;;;;;;108.78;54.17;;;13.60;2201.60;;;;;;4908868;29;20048;-83
2022/01/30 03:25:23;;;;;;;109.25;55.00;;;13.50;2201.60;;;;;;4906682;29;20051;-85
2022/01/30 03:27:52;;;;;;;101.22;54.40;;;13.40;2201.60;;;;;;4963791;28;20113;-85
2022/01/30 03:30:25;;;;;;;107.97;65.43;;;13.40;2201.60;;;;;;4965540;28;20026;-81
2022/01/30 03:32:55;;;;;;;107.85;60.78;;;13.40;2201.60;;;;;;4980783;28;20026;-88
2022/01/30 03:35:22;;;;;;;129.50;71.72;;;13.30;2201.60;;;;;;4980594;28;20031;-88
2022/01/30 03:37:48;;;;;;;127.50;68.40;;;13.30;2201.60;;;;;;4980179;28;20390;-86
2022/01/30 03:40:14;;;;;;;125.05;66.32;;;13.30;2201.60;;;;;;4980160;28;20030;-88
2022/01/30 03:42:41;;;;;;;99.43;59.70;;;13.40;2201.60;;;;;;4976438;28;20078;-87
2022/01/30 03:45:10;;;;;;;83.35;49.80;;;13.50;2201.60;;;;;;4977335;28;20027;-88
2022/01/30 03:47:55;;;;;;;65.15;38.75;;;38.50;2201.60;;;;;;4978707;28;20491;-82
2022/01/30 03:50:29;;;;;;;77.22;45.53;;;38.60;2201.60;;;;;;4982891;28;20034;-80
2022/01/30 03:53:11;;;;;;;71.90;41.30;;;38.40;2201.60;;;;;;4981991;28;20066;-81
2022/01/30 03:55:56;;;;;;;97.90;52.65;;;13.70;2201.60;;;;;;4981989;28;20039;-81
2022/01/30 03:59:08;;;;;;;86.20;46.83;;;13.60;2201.60;;;;;;4959115;28;20031;-86
2022/01/30 04:01:57;;;;;;;67.13;38.55;;;13.50;2201.60;;;;;;4968496;28;20510;-79
2022/01/30 04:04:37;;;;;;;51.38;30.08;;;13.60;2201.60;;;;;;4984961;28;20215;-83
2022/01/30 04:07:05;;;;;;;50.38;30.83;;;13.50;2201.60;;;;;;4984427;28;20086;-79
2022/01/30 04:09:56;;;;;;;43.50;24.77;;;13.60;2201.60;;;;;;4989451;28;20105;-80
2022/01/30 04:12:27;;;;;;;39.58;23.27;;;13.60;2201.60;;;;;;4985093;28;20038;-79
2022/01/30 04:14:54;;;;;;;51.38;30.80;;;13.70;2201.60;;;;;;4992287;28;20019;-80
2022/01/30 04:17:22;;;;;;;67.55;38.80;;;38.40;2201.60;;;;;;4993637;28;20387;-80
2022/01/30 04:19:53;;;;;;;59.60;35.65;;;38.40;2201.60;;;;;;4994666;28;20034;-80
2022/01/30 04:22:19;;;;;;;42.25;30.10;;;13.70;2201.60;;;;;;4993890;28;20023;-79
2022/01/30 04:24:46;;;;;;;38.95;25.08;;;38.40;2201.60;;;;;;4992372;28;20061;-80
2022/01/30 04:27:13;;;;;;;39.78;24.55;;;13.70;2201.60;;;;;;4993198;28;20027;-80
2022/01/30 04:29:41;;;;;;;44.85;27.67;;;13.70;2201.60;;;;;;4993312;28;20067;-78
2022/01/30 04:32:10;;;;;;;36.05;25.00;;;13.60;2201.60;;;;;;4990976;28;20039;-77
2022/01/30 04:34:38;;;;;;;44.25;28.17;;;13.60;2201.60;;;;;;4974304;28;20037;-80
2022/01/30 04:37:29;;;;;;;47.90;29.58;;;13.60;2201.60;;;;;;4989208;28;20030;-83
2022/01/30 05:08:26;;;;;;;43.63;25.80;;;13.30;2201.60;;;;;;4976531;28;20029;-87
2022/01/30 05:11:04;;;;;;;45.70;26.23;;;13.50;2201.60;;;;;;4959121;28;20562;-87
2022/01/30 05:13:57;;;;;;;89.00;59.95;;;13.40;2201.60;;;;;;4939458;28;20496;-85
2022/01/30 05:16:44;;;;;;;70.68;43.88;;;13.40;2201.60;;;;;;4959724;28;20432;-83
2022/01/30 05:19:51;;;;;;;66.95;45.60;;;13.40;2201.60;;;;;;4960032;28;20078;-87
2022/01/30 05:29:28;;;;;;;37.55;25.48;;;13.20;2201.60;;;;;;4968821;28;20057;-83
2022/01/30 05:33:03;;;;;;;68.20;34.72;;;13.70;2201.60;;;;;;4974896;28;20030;-81
2022/01/30 05:36:36;;;;;;;45.58;31.30;;;13.70;2201.60;;;;;;4988256;28;20027;-81
2022/01/30 05:40:06;;;;;;;44.53;35.22;;;13.60;2201.60;;;;;;4989065;28;20050;-81
2022/01/30 05:50:59;;;;;;;56.95;30.90;;;13.50;2201.60;;;;;;4856585;29;20079;-81
2022/01/30 05:54:48;;;;;;;42.72;25.20;;;13.60;2201.60;;;;;;4925598;29;20595;-82
2022/01/30 05:57:52;;;;;;;63.05;36.42;;;13.50;2201.60;;;;;;4919631;29;20036;-78
2022/01/30 06:01:34;;;;;;;48.13;30.80;;;13.60;2201.60;;;;;;4911484;29;20029;-81
2022/01/30 06:04:23;;;;;;;47.97;29.55;;;13.50;2201.60;;;;;;4842905;29;20053;-81
2022/01/30 06:07:11;;;;;;;51.63;32.90;;;13.50;2201.60;;;;;;4840550;29;20049;-80
2022/01/30 06:09:49;;;;;;;37.88;27.92;;;13.50;2201.60;;;;;;4851187;29;20071;-81
2022/01/30 06:12:47;;;;;;;36.80;25.67;;;13.50;2201.60;;;;;;4837086;29;20038;-81
2022/01/30 06:15:43;;;;;;;46.88;29.20;;;13.50;2201.60;;;;;;4856681;29;20037;-83
2022/01/30 06:18:17;;;;;;;45.17;29.35;;;13.60;2201.60;;;;;;4854112;29;20037;-83
2022/01/30 06:21:03;;;;;;;40.65;25.20;;;13.60;2201.60;;;;;;4855299;29;20117;-81
2022/01/30 06:23:31;;;;;;;46.92;28.67;;;13.50;2201.60;;;;;;4855068;29;20616;-82
2022/01/30 06:26:21;;;;;;;47.15;27.95;;;13.50;2201.60;;;;;;4854223;29;20085;-82
2022/01/30 06:29:14;;;;;;;58.67;36.67;;;13.50;2201.60;;;;;;4859865;29;20038;-82
2022/01/30 06:31:50;;;;;;;52.15;33.65;;;13.40;2201.60;;;;;;4862487;29;20182;-83
2022/01/30 06:34:56;;;;;;;53.75;32.95;;;13.40;2201.60;;;;;;4868460;29;20041;-83
2022/01/30 06:37:47;;;;;;;50.03;29.98;;;13.40;2201.60;;;;;;4914251;28;20392;-83
2022/01/30 06:41:11;;;;;;;41.72;24.58;;;13.40;2201.60;;;;;;4962131;28;20039;-84
2022/01/30 06:47:16;;;;;;;39.03;24.35;;;13.40;2201.60;;;;;;5001730;28;20111;-82
2022/01/30 06:49:44;;;;;;;52.35;29.80;;;13.40;2201.60;;;;;;4984838;28;20038;-82
2022/01/30 06:52:15;;;;;;;57.60;38.75;;;13.40;2201.60;;;;;;4986245;28;20085;-85
2022/01/30 06:54:56;;;;;;;37.90;23.52;;;13.50;2201.60;;;;;;4980904;28;20097;-83
2022/01/30 06:57:25;;;;;;;40.45;26.45;;;13.60;2201.60;;;;;;4982923;28;20069;-84
2022/01/30 06:59:54;;;;;;;47.38;27.65;;;13.60;2201.60;;;;;;4985585;28;20042;-85
2022/01/30 07:02:21;;;;;;;52.92;29.83;;;13.50;2201.60;;;;;;4969481;28;20395;-84
2022/01/30 07:05:07;;;;;;;65.70;35.50;;;13.50;2201.60;;;;;;4984851;28;20430;-84
2022/01/30 07:08:24;;;;;;;49.40;28.52;;;13.50;2201.60;;;;;;4960537;28;20038;-82
2022/01/30 07:11:50;;;;;;;46.53;28.30;;;13.40;2201.60;;;;;;5006073;28;20496;-84
2022/01/30 07:18:11;;;;;;;41.42;24.88;;;13.40;2201.60;;;;;;5002053;28;20037;-84
2022/01/30 07:21:21;;;;;;;53.78;31.60;;;13.30;2201.60;;;;;;4981693;28;20034;-86
2022/01/30 07:24:18;;;;;;;64.70;37.80;;;13.30;2201.60;;;;;;4989525;28;20117;-86
2022/01/30 07:26:46;;;;;;;71.60;43.58;;;13.10;2201.60;;;;;;4997101;28;20030;-83
2022/01/30 07:29:12;;;;;;;81.43;50.30;;;13.10;2201.60;;;;;;4980585;28;20057;-89
2022/01/30 07:31:38;;;;;;;71.18;48.88;;;13.00;2201.60;;;;;;4980508;28;20475;-88
2022/01/30 07:34:11;;;;;;;73.57;47.65;;;13.20;2201.60;;;;;;4980211;28;20045;-86
2022/01/30 07:37:10;;;;;;;69.22;41.13;;;13.30;2201.60;;;;;;4974265;28;20038;-83
2022/01/30 07:39:46;;;;;;;62.75;37.55;;;13.10;2201.60;;;;;;4961500;28;20069;-86
2022/01/30 07:42:14;;;;;;;62.78;37.53;;;13.10;2201.60;;;;;;4979456;28;20406;-86
2022/01/30 07:44:47;;;;;;;71.25;43.38;;;13.00;2201.60;;;;;;4996865;28;20121;-84
2022/01/30 07:51:39;;;;;;;77.45;43.70;;;13.00;2201.60;;;;;;5000896;28;20049;-87
2022/01/30 07:54:11;;;;;;;72.00;44.38;;;13.00;2201.60;;;;;;4976312;28;20022;-87
2022/01/30 07:56:41;;;;;;;71.38;45.30;;;12.90;2201.60;;;;;;4998485;28;20026;-85
2022/01/30 07:59:11;;;;;;;76.47;42.67;;;12.90;2201.60;;;;;;4980435;28;20110;-90
2022/01/30 08:01:37;;;;;;;111.55;65.97;;;0.20;2201.60;;;;;;4979785;28;20026;-86
2022/01/30 08:04:06;;;;;;;71.55;44.33;;;0.50;2201.60;;;;;;4979971;28;20034;-86
2022/01/30 08:06:31;;;;;;;77.90;48.42;;;0.40;2201.60;;;;;;4979428;28;20023;-87
2022/01/30 08:08:57;;;;;;;84.78;49.63;;;0.70;2201.60;;;;;;4979928;28;20018;-88
2022/01/30 08:11:23;;;;;;;94.60;55.72;;;0.70;2201.60;;;;;;4979809;28;20022;-87
2022/01/30 08:13:49;;;;;;;111.07;63.53;;;0.80;2201.60;;;;;;4979889;28;20030;-87
2022/01/30 08:16:15;;;;;;;126.35;72.95;;;0.80;2201.60;;;;;;4979894;28;20030;-90
2022/01/30 08:18:41;;;;;;;101.60;63.58;;;0.80;2201.60;;;;;;4979511;28;20026;-89
2022/01/30 08:21:07;;;;;;;98.78;59.85;;;0.80;2201.60;;;;;;4979814;28;20173;-86
2022/01/30 08:23:33;;;;;;;102.15;57.92;;;0.90;2201.60;;;;;;4979494;28;20117;-87
2022/01/30 08:26:00;;;;;;;113.65;67.38;;;25.60;2201.60;;;;;;4979169;28;20026;-85
2022/01/30 08:28:26;;;;;;;163.63;92.05;;;25.70;2201.60;;;;;;4979425;28;20022;-86
2022/01/30 08:30:52;;;;;;;170.07;95.75;;;25.60;2201.60;;;;;;4979432;28;20026;-86
2022/01/30 08:33:18;;;;;;;181.02;113.53;;;25.70;2201.60;;;;;;4979164;28;20038;-88
2022/01/30 08:35:45;;;;;;;163.82;97.70;;;25.60;2201.60;;;;;;4979536;28;20093;-86
2022/01/30 08:38:15;;;;;;;144.40;90.82;;;25.70;2201.60;;;;;;4979352;28;20030;-86
2022/01/30 08:40:40;;;;;;;169.13;102.15;;;25.90;2201.60;;;;;;4979206;28;20033;-86
2022/01/30 08:43:06;;;;;;;161.32;99.38;;;26.00;2201.60;;;;;;4978987;28;20064;-88
2022/01/30 08:45:32;;;;;;;178.20;111.10;;;26.00;2201.60;;;;;;4979113;28;20053;-87
2022/01/30 08:47:58;;;;;;;188.30;120.70;;;26.00;2201.60;;;;;;4978775;28;20061;-90
2022/01/30 08:50:24;;;;;;;169.65;111.40;;;25.80;2201.60;;;;;;4979132;28;20027;-88
2022/01/30 08:52:51;;;;;;;168.45;113.35;;;26.00;2201.60;;;;;;4979303;28;20387;-87
2022/01/30 08:55:18;;;;;;;165.60;105.40;;;26.20;2201.60;;;;;;4978677;28;20117;-86
2022/01/30 08:57:44;;;;;;;142.23;95.35;;;26.10;2201.60;;;;;;4978988;28;20034;-90
2022/01/30 09:00:13;;;;;;;101.00;66.85;;;26.00;2201.60;;;;;;4978701;28;20037;-87
2022/01/30 09:02:39;;;;;;;101.90;64.22;;;26.50;2201.60;;;;;;4978227;28;20383;-85
2022/01/30 09:05:10;;;;;;;83.35;52.40;;;51.20;2227.20;;;;;;4978804;28;20058;-88
2022/01/30 09:07:36;;;;;;;48.05;31.30;;;51.30;2227.20;;;;;;4978541;28;20031;-87
2022/01/30 09:10:05;;;;;;;36.17;22.52;;;51.40;2227.20;;;;;;4978903;28;20029;-85
2022/01/30 09:12:31;;;;;;;40.40;24.80;;;51.60;2227.20;;;;;;4978498;28;20030;-88
2022/01/30 09:14:57;;;;;;;41.95;27.58;;;51.60;2227.20;;;;;;4978444;28;20470;-84
2022/01/30 09:17:24;;;;;;;77.78;46.97;;;51.80;2227.20;;;;;;4978671;28;20489;-88
2022/01/30 09:19:50;;;;;;;107.95;70.90;;;51.80;2227.20;;;;;;4978722;28;20030;-89
2022/01/30 09:22:19;;;;;;;99.32;65.18;;;51.80;2227.20;;;;;;4978501;28;20026;-87
2022/01/30 09:24:45;;;;;;;130.25;88.63;;;51.80;2227.20;;;;;;4978958;28;20042;-87
2022/01/30 09:27:11;;;;;;;132.27;81.05;;;51.80;2227.20;;;;;;4978575;28;20022;-86
2022/01/30 09:29:38;;;;;;;99.30;64.65;;;52.10;2227.20;;;;;;4978285;28;20042;-86
2022/01/30 09:32:06;;;;;;;67.45;45.92;;;51.80;2227.20;;;;;;4978516;28;20387;-87
2022/01/30 09:34:32;;;;;;;71.13;47.67;;;51.70;2227.20;;;;;;4978146;28;20125;-85
2022/01/30 09:36:59;;;;;;;74.75;50.92;;;51.80;2227.20;;;;;;4978013;28;20463;-87
2022/01/30 09:39:25;;;;;;;79.03;50.50;;;51.90;2227.20;;;;;;4978114;28;20038;-89
2022/01/30 09:41:52;;;;;;;90.50;60.45;;;51.90;2227.20;;;;;;4978220;28;20109;-86
2022/01/30 09:44:20;;;;;;;91.97;60.25;;;51.90;2227.20;;;;;;4977917;28;20034;-90
2022/01/30 09:46:47;;;;;;;72.28;48.88;;;52.00;2227.20;;;;;;4978071;28;20515;-87
2022/01/30 09:49:13;;;;;;;79.05;49.25;;;52.00;2227.20;;;;;;4978002;28;20022;-88
2022/01/30 09:51:42;;;;;;;114.07;72.05;;;52.00;2227.20;;;;;;4978182;28;20084;-88
2022/01/30 09:54:09;;;;;;;93.25;54.28;;;52.10;2227.20;;;;;;4978270;28;20769;-86
2022/01/30 09:56:35;;;;;;;66.57;43.90;;;76.80;2227.20;;;;;;4977811;28;20113;-84
2022/01/30 09:59:01;;;;;;;117.70;75.55;;;76.90;2227.20;;;;;;4978251;28;20026;-84
2022/01/30 10:01:32;;;;;;;111.97;70.00;;;76.90;2227.20;;;;;;4978131;28;20068;-85
2022/01/30 10:03:59;;;;;;;76.22;48.53;;;76.90;2227.20;;;;;;4977744;28;20038;-87
2022/01/30 10:06:30;;;;;;;76.40;48.13;;;76.90;2227.20;;;;;;4977895;28;20058;-87
2022/01/30 10:12:33;;;;;;;78.03;50.17;;;76.90;2227.20;;;;;;4933963;29;20034;-88
2022/01/30 10:15:16;;;;;;;93.70;56.03;;;77.00;2227.20;;;;;;4918749;29;20032;-89
2022/01/30 10:17:54;;;;;;;82.10;54.90;;;77.00;2227.20;;;;;;4919301;29;20063;-88
2022/01/30 10:20:25;;;;;;;78.97;49.85;;;77.10;2227.20;;;;;;4919438;29;20441;-87
2022/01/30 10:23:01;;;;;;;94.65;59.90;;;77.20;2227.20;;;;;;4919165;29;20064;-86
2022/01/30 10:25:34;;;;;;;84.82;51.55;;;77.30;2227.20;;;;;;4919149;29;20032;-86
2022/01/30 10:28:11;;;;;;;74.00;50.90;;;77.40;2227.20;;;;;;4919070;29;20534;-88
2022/01/30 10:31:00;;;;;;;77.03;55.17;;;77.70;2227.20;;;;;;4919124;29;20507;-87
2022/01/30 10:33:45;;;;;;;80.40;55.47;;;102.40;2227.20;;;;;;4922519;29;20095;-86
2022/01/30 10:36:17;;;;;;;78.72;53.47;;;102.50;2227.20;;;;;;4943749;29;20026;-85
2022/01/30 10:38:52;;;;;;;76.47;52.10;;;102.50;2227.20;;;;;;4929213;29;20416;-86
2022/01/30 10:41:27;;;;;;;91.43;60.15;;;102.60;2227.20;;;;;;4924751;29;20031;-83
2022/01/30 10:44:00;;;;;;;78.40;52.25;;;102.60;2227.20;;;;;;4997509;28;20046;-84
2022/01/30 10:46:34;;;;;;;72.22;47.28;;;102.70;2227.20;;;;;;4980573;28;20085;-88
2022/01/30 10:49:02;;;;;;;70.85;46.80;;;102.80;2227.20;;;;;;4977428;28;20069;-87
2022/01/30 10:51:30;;;;;;;73.05;49.17;;;102.80;2227.20;;;;;;4977412;28;20501;-85
2022/01/30 10:53:58;;;;;;;61.45;44.22;;;102.90;2227.20;;;;;;4977254;28;20026;-88
2022/01/30 10:56:27;;;;;;;78.68;51.40;;;102.90;2227.20;;;;;;4977513;28;20467;-85
2022/01/30 10:59:14;;;;;;;76.93;50.55;;;103.00;2227.20;;;;;;4977362;28;20037;-86
2022/01/30 11:01:45;;;;;;;62.22;42.13;;;103.20;2227.20;;;;;;4977468;28;20121;-88
2022/01/30 11:04:25;;;;;;;60.85;42.88;;;103.30;2227.20;;;;;;4977276;28;20479;-86
2022/01/30 11:06:52;;;;;;;61.95;37.03;;;128.00;2252.80;;;;;;4977312;28;20065;-86
2022/01/30 11:09:25;;;;;;;58.40;37.90;;;128.10;2252.80;;;;;;4977168;28;20501;-82
2022/01/30 11:12:01;;;;;;;50.65;33.17;;;128.30;2252.80;;;;;;4977476;28;20128;-87
2022/01/30 11:15:05;;;;;;;48.85;33.13;;;128.10;2252.80;;;;;;4977248;28;20050;-85
2022/01/30 11:18:03;;;;;;;45.28;28.02;;;128.40;2252.80;;;;;;4993543;28;20081;-85
2022/01/30 11:23:52;;;;;;;46.40;27.35;;;128.30;2252.80;;;;;;4994182;28;20457;-83
2022/01/30 11:26:18;;;;;;;38.25;24.52;;;128.40;2252.80;;;;;;4996540;28;20467;-84
2022/01/30 11:28:45;;;;;;;36.45;26.50;;;128.60;2252.80;;;;;;4979947;28;20532;-82
2022/01/30 11:31:16;;;;;;;39.08;27.38;;;128.50;2252.80;;;;;;4979823;28;20026;-82
2022/01/30 11:33:44;;;;;;;49.13;29.42;;;128.60;2252.80;;;;;;4977250;28;20368;-82
2022/01/30 11:36:11;;;;;;;43.53;25.25;;;128.90;2252.80;;;;;;4998534;28;20382;-82
2022/01/30 11:38:39;;;;;;;39.38;25.20;;;153.60;2252.80;;;;;;4999051;28;20022;-82
2022/01/30 11:41:19;;;;;;;52.58;29.80;;;153.80;2252.80;;;;;;4998038;28;20105;-81
2022/01/30 11:44:19;;;;;;;32.70;23.90;;;154.10;2252.80;;;;;;4998881;28;20036;-80
2022/01/30 11:53:42;;;;;;;38.70;24.17;;;179.70;2227.20;;;;;;5015654;28;20175;-81
2022/01/30 12:03:24;;;;;;;23.77;16.45;;;205.20;2099.20;;;;;;4934861;29;20070;-80
2022/01/30 12:06:26;;;;;;;24.60;15.70;;;205.10;1996.80;;;;;;4992440;28;20030;-79
2022/01/30 12:16:08;;;;;;;50.78;31.42;;;230.60;1971.20;;;;;;5014846;28;20103;-79
2022/01/30 12:18:44;;;;;;;29.00;18.48;;;230.90;1894.40;;;;;;4997458;28;20030;-81
2022/01/30 12:21:16;;;;;;;33.60;21.73;;;230.90;1920.00;;;;;;4997521;28;20026;-78
2022/01/30 12:23:43;;;;;;;53.60;27.70;;;230.90;1920.00;;;;;;5014730;28;20474;-79
2022/01/30 12:26:15;;;;;;;32.58;20.35;;;231.30;1894.40;;;;;;4998041;28;20028;-77
2022/01/30 12:28:43;;;;;;;27.95;16.80;;;231.30;1868.80;;;;;;4997684;28;20133;-81
2022/01/30 12:31:43;;;;;;;32.13;20.25;;;230.70;1920.00;;;;;;4998089;28;20025;-83
2022/01/30 12:34:16;;;;;;;26.00;17.20;;;205.70;1945.60;;;;;;4998085;28;20026;-81
2022/01/30 12:37:00;;;;;;;45.45;27.60;;;205.20;1945.60;;;;;;4997266;28;20394;-81
2022/01/30 12:39:32;;;;;;;28.70;17.73;;;204.80;1996.80;;;;;;4998032;28;20034;-83
2022/01/30 12:42:16;;;;;;;31.02;22.80;;;180.00;1996.80;;;;;;4998254;28;20470;-83
2022/01/30 12:44:56;;;;;;;;;;;;;;;;;;;;;
2022/01/30 12:48:22;;;;;;;41.60;24.38;;;180.00;2073.60;;;;;;5007639;28;20042;-82
2022/01/30 12:50:50;;;;;;;51.42;31.52;;;180.10;2048.00;;;;;;4996900;28;20477;-82
2022/01/30 12:53:46;;;;;;;51.83;32.63;;;205.40;2048.00;;;;;;4989889;28;20810;-84
2022/01/30 12:57:01;;;;;;;37.78;24.73;;;205.50;2022.40;;;;;;4976095;28;20087;-82
2022/01/30 13:02:18;;;;;;;154.82;79.93;;;230.70;1971.20;;;;;;5014201;28;20445;-81
2022/01/30 13:04:45;;;;;;;129.88;66.22;;;230.40;1971.20;;;;;;4996447;28;20068;-83
2022/01/30 13:07:14;;;;;;;55.67;31.95;;;205.40;1996.80;;;;;;4996612;28;20026;-82
2022/01/30 13:09:47;;;;;;;44.53;29.33;;;205.20;2022.40;;;;;;4997004;28;20033;-83
2022/01/30 13:12:15;;;;;;;47.30;30.95;;;204.90;2073.60;;;;;;4996628;28;20537;-82
2022/01/30 13:14:42;;;;;;;67.53;46.58;;;180.00;2099.20;;;;;;4996533;28;20118;-82
2022/01/30 13:17:12;;;;;;;90.38;55.33;;;179.80;2150.40;;;;;;5013649;28;20029;-83
2022/01/30 13:19:42;;;;;;;68.75;46.33;;;179.70;2176.00;;;;;;4996247;28;20049;-82
2022/01/30 13:22:10;;;;;;;93.00;55.50;;;179.60;2176.00;;;;;;4996660;28;20040;-82
2022/01/30 13:24:37;;;;;;;93.05;51.95;;;179.50;2201.60;;;;;;4995890;28;20034;-79
2022/01/30 13:27:08;;;;;;;83.07;43.50;;;179.40;2227.20;;;;;;4996462;28;20137;-82
2022/01/30 13:29:36;;;;;;;68.97;39.85;;;179.20;2227.20;;;;;;4996496;28;20521;-79
2022/01/30 13:32:10;;;;;;;63.97;42.05;;;179.20;2252.80;;;;;;4996223;28;20053;-81
2022/01/30 13:34:38;;;;;;;66.88;42.60;;;179.20;2252.80;;;;;;4996251;28;20469;-83
2022/01/30 13:37:10;;;;;;;49.47;34.05;;;154.50;2252.80;;;;;;4996704;28;20099;-82
2022/01/30 13:40:06;;;;;;;24.92;15.07;;;154.50;2252.80;;;;;;4996590;28;20057;-82
2022/01/30 13:43:13;;;;;;;22.40;13.13;;;154.50;2252.80;;;;;;4987580;28;20505;-82
2022/01/30 13:47:59;;;;;;;24.23;15.90;;;154.50;2252.80;;;;;;5013387;28;20045;-82
2022/01/30 13:50:46;;;;;;;26.50;15.60;;;154.40;2252.80;;;;;;4996630;28;20080;-83
2022/01/30 13:53:28;;;;;;;27.25;15.73;;;154.30;2252.80;;;;;;4996949;28;20302;-81
2022/01/30 13:56:07;;;;;;;20.92;11.88;;;154.40;2252.80;;;;;;4997152;28;20033;-81
2022/01/30 13:58:45;;;;;;;24.20;15.57;;;154.30;2252.80;;;;;;4997256;28;20054;-83
2022/01/30 14:01:17;;;;;;;29.42;20.08;;;154.20;2252.80;;;;;;4997084;28;20036;-79
2022/01/30 14:03:45;;;;;;;32.45;22.38;;;154.30;2252.80;;;;;;4997156;28;20040;-87
2022/01/30 14:06:17;;;;;;;37.92;24.70;;;179.20;2252.80;;;;;;4997102;28;20030;-82
2022/01/30 14:09:19;;;;;;;60.25;35.80;;;179.70;2252.80;;;;;;4994386;28;20113;-86
2022/01/30 14:11:52;;;;;;;62.00;40.20;;;179.50;2252.80;;;;;;4993935;28;20177;-84
2022/01/30 14:14:21;;;;;;;52.85;30.95;;;179.40;2252.80;;;;;;5012521;28;20038;-82
2022/01/30 14:16:53;;;;;;;51.42;30.38;;;179.30;2252.80;;;;;;4995282;28;20041;-83
2022/01/30 14:19:28;;;;;;;61.57;36.33;;;154.50;2252.80;;;;;;4994966;28;20026;-87
2022/01/30 14:21:57;;;;;;;54.47;34.42;;;154.50;2252.80;;;;;;4996361;28;20358;-81
2022/01/30 14:24:27;;;;;;;63.80;37.97;;;154.50;2252.80;;;;;;4995875;28;20116;-84
2022/01/30 14:27:07;;;;;;;67.60;43.67;;;154.40;2252.80;;;;;;4985934;28;20034;-81
2022/01/30 14:29:33;;;;;;;61.30;39.58;;;154.40;2252.80;;;;;;4976622;28;20041;-85
2022/01/30 14:32:02;;;;;;;67.88;42.33;;;154.20;2252.80;;;;;;4976619;28;20022;-83
2022/01/30 14:34:29;;;;;;;80.55;46.55;;;154.10;2252.80;;;;;;4976821;28;20125;-85
2022/01/30 14:36:59;;;;;;;78.82;46.30;;;154.00;2252.80;;;;;;4981982;28;20036;-80
2022/01/30 14:39:31;;;;;;;92.68;60.80;;;154.10;2252.80;;;;;;4981422;28;20026;-83
2022/01/30 14:41:58;;;;;;;112.63;69.03;;;154.10;2252.80;;;;;;4976815;28;20062;-83
2022/01/30 14:44:24;;;;;;;120.45;75.95;;;154.00;2252.80;;;;;;4976006;28;20030;-85
2022/01/30 14:46:50;;;;;;;130.57;82.63;;;154.00;2252.80;;;;;;4976200;28;20057;-80
2022/01/30 14:49:17;;;;;;;142.27;92.97;;;154.00;2252.80;;;;;;4976628;28;20054;-82
2022/01/30 14:51:44;;;;;;;184.40;113.57;;;154.00;2252.80;;;;;;4976528;28;20470;-83
2022/01/30 14:54:10;;;;;;;191.60;116.80;;;153.90;2252.80;;;;;;4976161;28;20077;-84
2022/01/30 14:56:36;;;;;;;196.82;123.32;;;154.00;2252.80;;;;;;4976520;28;20022;-85
2022/01/30 14:59:03;;;;;;;163.65;98.88;;;153.80;2252.80;;;;;;4993765;28;20046;-83
2022/01/30 15:01:29;;;;;;;143.52;87.95;;;153.90;2252.80;;;;;;4978884;28;20117;-81
2022/01/30 15:03:55;;;;;;;65.88;42.45;;;153.90;2252.80;;;;;;4979923;28;20049;-84
2022/01/30 15:06:22;;;;;;;56.75;35.47;;;153.90;2252.80;;;;;;4980083;28;20047;-83
2022/01/30 15:08:48;;;;;;;100.82;55.25;;;153.90;2252.80;;;;;;4997399;28;20022;-83
2022/01/30 15:11:14;;;;;;;123.20;70.80;;;153.80;2252.80;;;;;;4979901;28;20057;-83
2022/01/30 15:13:41;;;;;;;134.07;78.85;;;153.80;2252.80;;;;;;4997550;28;20031;-84
2022/01/30 15:16:19;;;;;;;313.83;157.43;;;153.80;2252.80;;;;;;4980002;28;20121;-83
2022/01/30 15:18:44;;;;;;;334.58;168.98;;;153.60;2252.80;;;;;;4979552;28;20045;-83
2022/01/30 15:21:14;;;;;;;291.63;164.07;;;153.60;2252.80;;;;;;4997278;28;20026;-81
2022/01/30 15:23:41;;;;;;;237.05;137.75;;;153.60;2252.80;;;;;;4979600;28;20038;-83
2022/01/30 15:26:08;;;;;;;211.73;117.88;;;153.60;2252.80;;;;;;4979390;28;20032;-83
2022/01/30 15:28:35;;;;;;;209.10;119.60;;;128.90;2252.80;;;;;;4980512;28;20037;-82
2022/01/30 15:31:01;;;;;;;202.48;118.95;;;128.90;2252.80;;;;;;4980536;28;20026;-83
2022/01/30 15:33:27;;;;;;;183.07;111.18;;;128.90;2252.80;;;;;;4997569;28;20027;-83
2022/01/30 15:35:53;;;;;;;226.20;135.48;;;153.60;2252.80;;;;;;4980184;28;20026;-80
2022/01/30 15:38:22;;;;;;;284.90;170.30;;;153.60;2252.80;;;;;;4980199;28;20113;-82
2022/01/30 15:40:50;;;;;;;169.57;108.13;;;128.90;2252.80;;;;;;4977828;28;20466;-83
2022/01/30 15:43:16;;;;;;;196.00;116.43;;;128.70;2252.80;;;;;;4978516;28;20034;-84
2022/01/30 15:51:11;;;;;;;149.65;94.78;;;128.60;2252.80;;;;;;4997188;28;20029;-90
2022/01/30 15:53:37;;;;;;;185.23;118.85;;;128.50;2252.80;;;;;;4980315;28;20040;-84
2022/01/30 15:56:03;;;;;;;202.43;128.32;;;128.60;2252.80;;;;;;4980074;28;20118;-85
2022/01/30 15:58:29;;;;;;;203.50;130.98;;;128.50;2252.80;;;;;;4980138;28;20037;-88
2022/01/30 16:00:56;;;;;;;219.60;139.35;;;128.50;2252.80;;;;;;4980041;28;20026;-85
2022/01/30 16:03:22;;;;;;;268.20;188.75;;;128.50;2252.80;;;;;;4979811;28;20070;-83
2022/01/30 16:05:48;;;;;;;278.08;182.05;;;128.40;2252.80;;;;;;4980052;28;20047;-87
2022/01/30 16:08:18;;;;;;;190.77;121.45;;;128.40;2252.80;;;;;;4979620;28;20463;-85
2022/01/30 16:10:54;;;;;;;160.75;99.55;;;128.20;2252.80;;;;;;4979942;28;20121;-86
2022/01/30 16:16:04;;;;;;;130.48;81.55;;;128.00;2252.80;;;;;;4996991;28;20109;-84
2022/01/30 16:18:30;;;;;;;144.52;94.55;;;128.10;2252.80;;;;;;4979123;28;20054;-83
2022/01/30 16:20:56;;;;;;;193.85;113.72;;;128.10;2252.80;;;;;;4979314;28;20530;-84
2022/01/30 16:23:22;;;;;;;108.05;68.18;;;128.10;2252.80;;;;;;4996610;28;20045;-86
2022/01/30 16:25:47;;;;;;;85.40;51.42;;;128.00;2252.80;;;;;;4979715;28;20031;-85
2022/01/30 16:28:14;;;;;;;81.50;53.05;;;103.20;2227.20;;;;;;4979361;28;20029;-87
2022/01/30 16:30:39;;;;;;;108.65;70.68;;;103.20;2227.20;;;;;;4979344;28;20031;-86
2022/01/30 16:33:05;;;;;;;147.45;94.70;;;103.10;2227.20;;;;;;4979780;28;20105;-86
2022/01/30 16:35:34;;;;;;;130.02;84.68;;;103.10;2227.20;;;;;;4979067;28;20022;-87
2022/01/30 16:38:02;;;;;;;153.98;97.20;;;103.00;2227.20;;;;;;4979427;28;20077;-88
2022/01/30 16:40:28;;;;;;;216.07;133.38;;;102.80;2227.20;;;;;;4978581;28;20049;-86
2022/01/30 16:42:54;;;;;;;272.85;167.23;;;102.60;2227.20;;;;;;4978232;28;20034;-87
2022/01/30 16:45:25;;;;;;;204.43;125.53;;;102.80;2227.20;;;;;;4978839;28;20069;-88
2022/01/30 16:47:59;;;;;;;225.00;130.73;;;102.80;2227.20;;;;;;4978556;28;20057;-89
2022/01/30 16:50:29;;;;;;;150.15;94.10;;;102.90;2227.20;;;;;;4978851;28;20533;-87
2022/01/30 16:52:56;;;;;;;132.57;80.18;;;102.80;2227.20;;;;;;4996409;28;20022;-88
2022/01/30 16:55:23;;;;;;;123.15;78.85;;;102.90;2227.20;;;;;;4979079;28;20143;-87